createdAt,value
2023-07-19T00:01:34.371Z,1.42
2023-07-19T00:04:03.760Z,1.57
2023-07-19T00:06:31.873Z,1.50
2023-07-19T00:09:01.270Z,1.85
2023-07-19T00:11:30.400Z,1.45
2023-07-19T00:13:58.361Z,1.52
2023-07-19T00:16:29.285Z,1.80
2023-07-19T00:19:00.089Z,1.60
2023-07-19T00:21:34.593Z,1.40
2023-07-19T00:24:04.974Z,1.60
2023-07-19T00:26:32.928Z,1.83
2023-07-19T00:29:01.838Z,1.80
2023-07-19T00:31:29.806Z,1.60
2023-07-19T00:33:59.207Z,1.60
2023-07-19T00:36:27.421Z,1.70
2023-07-19T00:38:56.057Z,1.50
2023-07-19T00:41:26.317Z,1.77
2023-07-19T00:46:22.846Z,1.70
2023-07-19T00:48:51.446Z,1.63
2023-07-19T00:51:21.389Z,1.40
2023-07-19T00:53:51.249Z,1.77
2023-07-19T00:56:21.260Z,1.55
2023-07-19T00:58:52.312Z,1.60
2023-07-19T01:01:23.361Z,1.83
2023-07-19T01:03:52.385Z,1.77
2023-07-19T01:06:21.175Z,1.70
2023-07-19T01:08:51.187Z,1.88
2023-07-19T01:11:19.609Z,1.65
2023-07-19T01:13:56.517Z,1.80
2023-07-19T01:16:26.588Z,2.00
2023-07-19T01:18:54.700Z,2.00
2023-07-19T01:21:25.157Z,2.20
2023-07-19T01:23:56.977Z,2.08
2023-07-19T01:26:25.942Z,1.98
2023-07-19T01:28:57.469Z,1.67
2023-07-19T01:31:26.157Z,1.73
2023-07-19T01:33:54.138Z,2.00
2023-07-19T01:36:22.878Z,2.03
2023-07-19T01:38:51.594Z,2.00
2023-07-19T01:41:21.308Z,2.22
2023-07-19T01:43:49.935Z,2.20
2023-07-19T01:46:18.242Z,2.13
2023-07-19T01:48:47.221Z,2.40
2023-07-19T01:51:15.179Z,2.42
2023-07-19T01:53:43.292Z,2.22
2023-07-19T01:56:12.182Z,2.50
2023-07-19T01:58:41.698Z,2.85
2023-07-19T02:03:38.461Z,2.70
2023-07-19T02:06:07.000Z,2.80
2023-07-19T02:08:35.494Z,3.53
2023-07-19T02:11:03.546Z,3.15
2023-07-19T02:13:31.724Z,3.03
2023-07-19T02:16:01.323Z,2.65
2023-07-19T02:20:58.168Z,2.40
2023-07-19T02:23:26.235Z,2.80
2023-07-19T02:25:56.389Z,2.70
2023-07-19T02:28:24.385Z,2.63
2023-07-19T02:30:52.362Z,2.60
2023-07-19T02:33:22.925Z,2.97
2023-07-19T02:35:55.870Z,3.60
2023-07-19T02:38:24.746Z,3.10
2023-07-19T02:40:52.800Z,2.92
2023-07-19T02:43:21.316Z,2.95
2023-07-19T02:45:49.801Z,2.85
2023-07-19T02:48:17.931Z,2.80
2023-07-19T02:50:48.778Z,2.95
2023-07-19T02:53:18.456Z,2.45
2023-07-19T02:55:46.694Z,3.00
2023-07-19T02:58:16.838Z,2.45
2023-07-19T03:03:14.954Z,2.72
2023-07-19T03:05:47.617Z,2.35
2023-07-19T03:08:16.480Z,2.47
2023-07-19T03:10:44.847Z,2.30
2023-07-19T03:13:13.470Z,2.53
2023-07-19T03:15:47.725Z,2.50
2023-07-19T03:18:16.060Z,2.30
2023-07-19T03:20:45.288Z,2.50
2023-07-19T03:23:14.950Z,2.38
2023-07-19T03:28:11.422Z,2.50
2023-07-19T03:30:40.407Z,2.75
2023-07-19T03:33:09.336Z,2.30
2023-07-19T03:35:37.384Z,2.45
2023-07-19T03:38:05.822Z,2.20
2023-07-19T03:40:35.235Z,2.40
2023-07-19T03:43:04.475Z,2.40
2023-07-19T03:45:32.469Z,2.47
2023-07-19T03:48:00.947Z,2.35
2023-07-19T03:50:31.634Z,2.08
2023-07-19T03:52:59.599Z,2.33
2023-07-19T03:55:28.136Z,2.50
2023-07-19T03:57:58.799Z,2.80
2023-07-19T04:00:28.264Z,2.53
2023-07-19T04:02:57.113Z,2.80
2023-07-19T04:05:25.679Z,3.30
2023-07-19T04:07:55.690Z,3.40
2023-07-19T04:10:24.688Z,3.50
2023-07-19T04:12:52.630Z,3.28
2023-07-19T04:15:23.380Z,3.53
2023-07-19T04:17:51.480Z,2.80
2023-07-19T04:20:19.665Z,3.38
2023-07-19T04:22:48.153Z,3.17
2023-07-19T04:25:16.267Z,3.22
2023-07-19T04:27:44.272Z,2.88
2023-07-19T04:30:13.432Z,2.85
2023-07-19T04:32:43.765Z,3.13
2023-07-19T04:35:12.436Z,2.95
2023-07-19T04:37:41.229Z,3.15
2023-07-19T04:40:11.036Z,2.93
2023-07-19T04:42:41.219Z,3.03
2023-07-19T04:45:11.383Z,3.20
2023-07-19T04:47:40.021Z,3.20
2023-07-19T04:50:12.261Z,2.80
2023-07-19T04:52:40.926Z,2.22
2023-07-19T04:55:10.044Z,2.60
2023-07-19T04:57:39.896Z,2.50
2023-07-19T05:00:12.989Z,2.63
2023-07-19T05:02:42.251Z,2.78
2023-07-19T05:05:13.406Z,2.45
2023-07-19T05:07:42.786Z,2.65
2023-07-19T05:10:11.529Z,2.60
2023-07-19T05:12:40.842Z,2.45
2023-07-19T05:15:10.058Z,2.58
2023-07-19T05:17:38.518Z,2.20
2023-07-19T05:20:09.746Z,2.75
2023-07-19T05:22:39.850Z,3.28
2023-07-19T05:25:10.648Z,3.80
2023-07-19T05:27:38.641Z,3.47
2023-07-19T05:30:07.730Z,4.10
2023-07-19T05:32:35.847Z,4.00
2023-07-19T05:35:03.868Z,4.35
2023-07-19T05:37:32.270Z,4.18
2023-07-19T05:40:01.995Z,4.22
2023-07-19T05:42:29.973Z,3.53
2023-07-19T05:44:57.999Z,4.03
2023-07-19T05:47:28.713Z,4.03
2023-07-19T05:49:57.928Z,3.72
2023-07-19T05:52:28.871Z,4.00
2023-07-19T05:54:57.207Z,3.53
2023-07-19T05:57:26.598Z,3.35
2023-07-19T06:00:00.817Z,3.17
2023-07-19T06:02:53.343Z,3.00
2023-07-19T06:05:24.150Z,3.35
2023-07-19T06:07:53.340Z,2.80
2023-07-19T06:10:22.468Z,2.92
2023-07-19T06:12:53.240Z,2.88
2023-07-19T06:15:21.757Z,2.40
2023-07-19T06:17:50.191Z,2.70
2023-07-19T06:20:18.262Z,2.80
2023-07-19T06:22:47.474Z,2.60
2023-07-19T06:25:16.081Z,2.30
2023-07-19T06:27:44.728Z,2.50
2023-07-19T06:30:15.588Z,2.60
2023-07-19T06:32:44.128Z,2.53
2023-07-19T06:35:13.404Z,2.45
2023-07-19T06:37:42.011Z,2.55
2023-07-19T06:40:11.032Z,2.63
2023-07-19T06:42:39.752Z,2.67
2023-07-19T06:45:08.720Z,2.53
2023-07-19T06:47:39.093Z,2.88
2023-07-19T06:50:08.613Z,2.53
2023-07-19T06:52:37.080Z,2.63
2023-07-19T06:55:06.190Z,2.50
2023-07-19T06:57:34.753Z,2.40
2023-07-19T07:00:04.354Z,2.58
2023-07-19T07:02:32.396Z,3.00
2023-07-19T07:05:02.917Z,2.95
2023-07-19T07:07:30.886Z,2.55
2023-07-19T07:09:59.256Z,2.70
2023-07-19T07:12:28.202Z,2.83
2023-07-19T07:14:56.126Z,3.17
2023-07-19T07:17:24.712Z,2.90
2023-07-19T07:19:54.850Z,2.85
2023-07-19T07:22:24.420Z,3.22
2023-07-19T07:24:52.356Z,3.38
2023-07-19T07:27:20.568Z,3.40
2023-07-19T07:29:48.558Z,3.72
2023-07-19T07:32:16.583Z,3.75
2023-07-19T07:34:45.074Z,3.97
2023-07-19T07:37:13.218Z,3.17
2023-07-19T07:39:43.033Z,3.28
2023-07-19T07:44:39.707Z,2.85
2023-07-19T07:47:09.375Z,3.30
2023-07-19T07:49:37.373Z,3.50
2023-07-19T07:52:06.895Z,3.58
2023-07-19T07:54:35.065Z,3.53
2023-07-19T07:57:05.251Z,3.13
2023-07-19T08:02:04.475Z,3.17
2023-07-19T08:04:35.880Z,3.78
2023-07-19T08:07:03.950Z,3.38
2023-07-19T08:09:32.377Z,3.70
2023-07-19T08:12:00.798Z,3.40
2023-07-19T08:14:30.105Z,3.80
2023-07-19T08:19:30.726Z,3.47
2023-07-19T08:22:07.596Z,3.78
2023-07-19T08:24:36.000Z,4.00
2023-07-19T08:27:04.195Z,3.67
2023-07-19T08:29:34.413Z,3.63
2023-07-19T08:34:30.740Z,3.50
2023-07-19T08:36:58.748Z,3.45
2023-07-19T08:39:28.772Z,4.15
2023-07-19T08:41:56.771Z,3.50
2023-07-19T08:44:25.224Z,3.42
2023-07-19T08:46:54.818Z,3.03
2023-07-19T08:49:23.911Z,2.83
2023-07-19T08:51:52.173Z,3.47
2023-07-19T08:54:20.197Z,3.35
2023-07-19T08:56:48.704Z,3.35
2023-07-19T08:59:16.676Z,3.35
2023-07-19T09:01:45.295Z,4.10
2023-07-19T09:04:15.773Z,3.70
2023-07-19T09:06:45.363Z,3.65
2023-07-19T09:09:15.254Z,3.70
2023-07-19T09:11:45.055Z,4.00
2023-07-19T09:14:13.059Z,4.30
2023-07-19T09:16:41.521Z,4.00
2023-07-19T09:19:10.933Z,3.92
2023-07-19T09:21:43.278Z,4.30
2023-07-19T09:24:13.044Z,3.60
2023-07-19T09:26:50.766Z,3.63
2023-07-19T09:29:20.168Z,4.20
2023-07-19T09:31:55.840Z,4.20
2023-07-19T09:34:24.948Z,3.78
2023-07-19T09:36:54.912Z,3.28
2023-07-19T09:39:24.191Z,3.75
2023-07-19T09:41:53.752Z,3.22
2023-07-19T09:44:23.322Z,3.72
2023-07-19T09:46:51.967Z,3.42
2023-07-19T09:49:19.918Z,3.03
2023-07-19T09:51:51.112Z,3.20
2023-07-19T09:54:20.536Z,3.30
2023-07-19T09:56:48.508Z,3.00
2023-07-19T09:59:21.037Z,3.10
2023-07-19T10:01:50.660Z,3.08
2023-07-19T10:04:26.488Z,3.30
2023-07-19T10:07:08.753Z,3.17
2023-07-19T10:09:43.494Z,3.42
2023-07-19T10:12:26.501Z,2.72
2023-07-19T10:14:58.689Z,2.80
2023-07-19T10:17:26.956Z,2.75
2023-07-19T10:20:09.574Z,2.90
2023-07-19T10:22:54.012Z,2.20
2023-07-19T10:25:28.721Z,2.00
2023-07-19T10:28:02.291Z,2.28
2023-07-19T10:30:55.927Z,2.00
2023-07-19T10:33:25.887Z,2.20
2023-07-19T10:35:55.928Z,1.88
2023-07-19T10:38:25.332Z,2.38
2023-07-19T10:41:02.149Z,2.25
2023-07-19T10:43:46.925Z,1.60
2023-07-19T10:46:20.189Z,2.03
2023-07-19T10:48:52.012Z,1.70
2023-07-19T10:51:21.448Z,1.83
2023-07-19T10:53:58.904Z,1.45
2023-07-19T10:56:29.875Z,1.60
2023-07-19T10:59:02.553Z,1.50
2023-07-19T11:01:32.258Z,1.40
2023-07-19T11:04:06.518Z,1.42
2023-07-19T11:06:34.889Z,1.77
2023-07-19T11:09:07.950Z,1.50
2023-07-19T11:11:41.794Z,1.70
2023-07-19T11:14:09.779Z,1.25
2023-07-19T11:16:38.920Z,1.40
2023-07-19T11:19:06.937Z,1.60
2023-07-19T11:21:35.712Z,1.80
2023-07-19T11:24:04.251Z,1.45
2023-07-19T11:26:32.357Z,1.40
2023-07-19T11:29:02.245Z,1.52
2023-07-19T11:31:32.918Z,1.60
2023-07-19T11:34:08.875Z,1.60
2023-07-19T11:36:40.995Z,1.20
2023-07-19T11:39:15.815Z,1.63
2023-07-19T11:41:43.897Z,1.63
2023-07-19T11:44:17.500Z,1.52
2023-07-19T11:46:45.461Z,1.73
2023-07-19T11:49:14.562Z,1.70
2023-07-19T11:51:43.145Z,1.50
2023-07-19T11:54:12.129Z,1.52
2023-07-19T11:56:40.112Z,1.73
2023-07-19T11:59:08.118Z,1.48
2023-07-19T12:01:38.504Z,1.90
2023-07-19T12:04:06.561Z,1.75
2023-07-19T12:06:35.526Z,1.60
2023-07-19T12:09:04.159Z,1.90
2023-07-19T12:11:32.171Z,1.90
2023-07-19T12:14:01.462Z,1.90
2023-07-19T12:16:29.965Z,2.00
2023-07-19T12:18:59.804Z,1.88
2023-07-19T12:21:28.479Z,2.13
2023-07-19T12:23:59.598Z,2.00
2023-07-19T12:28:59.842Z,1.83
2023-07-19T12:31:27.947Z,1.33
2023-07-19T12:33:57.968Z,1.40
2023-07-19T12:36:28.212Z,1.65
2023-07-19T12:38:57.665Z,1.67
2023-07-19T12:41:26.180Z,1.55
2023-07-19T12:43:54.158Z,1.20
2023-07-19T12:46:23.854Z,1.67
2023-07-19T12:48:52.248Z,1.33
2023-07-19T12:51:21.622Z,1.60
2023-07-19T12:53:51.486Z,1.52
2023-07-19T12:56:19.678Z,1.60
2023-07-19T12:58:48.302Z,1.40
2023-07-19T13:01:16.449Z,2.22
2023-07-19T13:03:45.433Z,1.60
2023-07-19T13:06:14.017Z,1.80
2023-07-19T13:08:42.177Z,1.52
2023-07-19T13:11:12.587Z,1.30
2023-07-19T13:13:41.071Z,1.75
2023-07-19T13:16:09.018Z,1.50
2023-07-19T13:18:37.973Z,1.50
2023-07-19T13:21:06.557Z,1.50
2023-07-19T13:23:34.726Z,1.42
2023-07-19T13:26:02.736Z,1.50
2023-07-19T13:28:32.640Z,1.63
2023-07-19T13:31:01.332Z,1.45
2023-07-19T13:33:30.718Z,1.60
2023-07-19T13:35:59.178Z,1.40
2023-07-19T13:38:28.763Z,1.40
2023-07-19T13:40:57.801Z,1.52
2023-07-19T13:43:25.761Z,1.60
2023-07-19T13:45:55.650Z,1.50
2023-07-19T13:48:24.593Z,1.40
2023-07-19T13:50:52.655Z,1.30
2023-07-19T13:53:21.424Z,1.50
2023-07-19T13:55:49.989Z,1.35
2023-07-19T13:58:18.029Z,1.53
2023-07-19T14:00:46.529Z,1.55
2023-07-19T14:03:17.928Z,1.90
2023-07-19T14:05:45.912Z,1.90
2023-07-19T14:08:15.395Z,1.60
2023-07-19T14:10:44.015Z,1.40
2023-07-19T14:16:04.751Z,1.60
2023-07-19T14:18:36.147Z,1.73
2023-07-19T14:21:10.117Z,1.60
2023-07-19T14:23:39.913Z,1.58
2023-07-19T14:26:07.902Z,1.88
2023-07-19T14:28:36.861Z,1.75
2023-07-19T14:31:05.506Z,1.70
2023-07-19T14:33:35.073Z,1.60
2023-07-19T14:36:04.871Z,1.15
2023-07-19T14:38:34.922Z,1.70
2023-07-19T14:41:03.650Z,1.60
2023-07-19T14:43:32.216Z,1.80
2023-07-19T14:46:00.288Z,1.80
2023-07-19T14:48:29.225Z,1.60
2023-07-19T14:50:58.641Z,1.70
2023-07-19T14:53:27.717Z,1.40
2023-07-19T14:55:56.569Z,1.50
2023-07-19T14:58:24.658Z,1.48
2023-07-19T15:00:56.499Z,1.40
2023-07-19T15:05:58.299Z,1.33
2023-07-19T15:08:27.312Z,1.63
2023-07-19T15:10:57.016Z,1.20
2023-07-19T15:13:25.728Z,1.30
2023-07-19T15:15:56.159Z,1.25
2023-07-19T15:18:28.172Z,1.40
2023-07-19T15:20:58.071Z,1.55
2023-07-19T15:23:27.218Z,1.20
2023-07-19T15:25:55.496Z,1.50
2023-07-19T15:28:29.820Z,1.30
2023-07-19T15:30:59.636Z,1.40
2023-07-19T15:33:27.831Z,1.10
2023-07-19T15:35:59.998Z,1.50
2023-07-19T15:38:41.244Z,1.27
2023-07-19T15:41:09.625Z,1.42
2023-07-19T15:43:38.499Z,1.30
2023-07-19T15:46:07.478Z,1.17
2023-07-19T15:48:37.736Z,1.42
2023-07-19T15:51:06.535Z,1.20
2023-07-19T15:53:37.411Z,1.30
2023-07-19T15:56:09.143Z,1.15
2023-07-19T15:58:37.327Z,1.38
2023-07-19T16:01:07.483Z,1.60
2023-07-19T16:03:37.167Z,1.17
2023-07-19T16:06:07.944Z,1.40
2023-07-19T16:08:38.335Z,1.13
2023-07-19T16:13:36.755Z,1.23
2023-07-19T16:16:05.524Z,1.43
2023-07-19T16:18:34.980Z,2.30
2023-07-19T16:21:03.679Z,2.30
2023-07-19T16:23:32.628Z,2.10
2023-07-19T16:26:00.632Z,2.20
2023-07-19T16:28:30.620Z,3.15
2023-07-19T16:30:58.722Z,3.53
2023-07-19T16:33:27.951Z,3.13
2023-07-19T16:35:55.966Z,3.78
2023-07-19T16:38:24.913Z,3.55
2023-07-19T16:40:52.900Z,3.85
2023-07-19T16:43:24.799Z,4.72
2023-07-19T16:45:55.716Z,5.50
2023-07-19T16:50:52.026Z,5.35
2023-07-19T16:53:21.804Z,5.68
2023-07-19T16:58:18.553Z,4.05
2023-07-19T17:00:47.013Z,5.20
2023-07-19T17:03:16.937Z,4.75
2023-07-19T17:05:45.864Z,4.45
2023-07-19T17:08:14.387Z,4.60
2023-07-19T17:10:43.392Z,4.53
2023-07-19T17:13:11.890Z,3.83
2023-07-19T17:15:40.158Z,3.97
2023-07-19T17:18:10.094Z,3.90
2023-07-19T17:20:41.326Z,3.78
2023-07-19T17:23:24.780Z,3.40
2023-07-19T17:26:22.790Z,4.03
2023-07-19T17:28:51.856Z,3.60
2023-07-19T17:31:21.210Z,4.20
2023-07-19T17:33:52.349Z,4.35
2023-07-19T17:36:22.587Z,4.72
2023-07-19T17:38:50.961Z,4.78
2023-07-19T17:41:20.192Z,5.20
2023-07-19T17:43:49.640Z,5.07
2023-07-19T17:46:20.730Z,4.68
2023-07-19T17:48:52.489Z,4.35
2023-07-19T17:51:23.084Z,4.20
2023-07-19T17:53:51.647Z,5.22
2023-07-19T17:56:19.777Z,4.85
2023-07-19T17:58:47.822Z,4.55
2023-07-19T18:01:17.181Z,3.95
2023-07-19T18:03:45.516Z,4.03
2023-07-19T18:06:13.620Z,3.55
2023-07-19T18:08:43.031Z,3.55
2023-07-19T18:11:11.129Z,3.92
2023-07-19T18:13:39.580Z,3.20
2023-07-19T18:16:08.007Z,3.13
2023-07-19T18:18:35.977Z,3.20
2023-07-19T18:21:04.171Z,3.50
2023-07-19T18:23:32.889Z,3.53
2023-07-19T18:26:02.278Z,3.10
2023-07-19T18:28:30.697Z,3.45
2023-07-19T18:30:58.819Z,3.25
2023-07-19T18:33:27.363Z,3.22
2023-07-19T18:35:55.352Z,3.90
2023-07-19T18:38:23.879Z,3.53
2023-07-19T18:40:52.048Z,3.55
2023-07-19T18:43:21.429Z,3.85
2023-07-19T18:48:18.506Z,3.80
2023-07-19T18:50:46.997Z,3.50
2023-07-19T18:53:16.109Z,4.60
2023-07-19T18:55:44.444Z,5.78
2023-07-19T18:58:13.153Z,7.53
2023-07-19T19:00:42.666Z,9.23
2023-07-19T19:03:11.360Z,8.93
2023-07-19T19:05:42.181Z,9.68
2023-07-19T19:08:10.316Z,10.20
2023-07-19T19:10:39.206Z,11.40
2023-07-19T19:13:07.272Z,11.37
2023-07-19T19:15:36.129Z,11.43
2023-07-19T19:18:05.601Z,11.17
2023-07-19T19:20:33.730Z,11.98
2023-07-19T19:23:03.069Z,12.55
2023-07-19T19:25:33.081Z,12.50
2023-07-19T19:28:02.275Z,13.40
2023-07-19T19:30:31.506Z,13.57
2023-07-19T19:33:00.302Z,12.30
2023-07-19T19:35:29.773Z,12.15
2023-07-19T19:37:57.734Z,12.77
2023-07-19T19:40:26.321Z,8.93
2023-07-19T19:42:54.380Z,8.20
2023-07-19T19:45:23.457Z,6.40
2023-07-19T19:47:51.486Z,6.70
2023-07-19T19:50:19.448Z,9.00
2023-07-19T19:52:59.264Z,8.25
2023-07-19T19:58:08.507Z,9.25
2023-07-19T20:00:36.502Z,9.43
2023-07-19T20:08:08.967Z,10.85
2023-07-19T20:13:06.778Z,10.80
2023-07-19T20:15:47.838Z,11.93
2023-07-19T20:20:47.957Z,11.52
2023-07-19T20:23:17.400Z,10.98
2023-07-19T20:26:01.111Z,10.68
2023-07-19T20:28:34.627Z,10.55
2023-07-19T20:31:06.414Z,9.30
2023-07-19T20:33:35.835Z,8.00
2023-07-19T20:36:05.669Z,8.55
2023-07-19T20:43:39.024Z,8.32
2023-07-19T20:46:07.588Z,7.40
2023-07-19T20:48:38.415Z,6.97
2023-07-19T20:51:11.360Z,7.05
2023-07-19T20:53:41.141Z,7.18
2023-07-19T20:56:10.086Z,6.75
2023-07-19T20:58:38.755Z,6.47
2023-07-19T21:01:07.350Z,7.28
2023-07-19T21:03:35.875Z,5.72
2023-07-19T21:06:03.907Z,5.90
2023-07-19T21:08:31.998Z,6.13
2023-07-19T21:11:01.509Z,5.85
2023-07-19T21:15:58.477Z,6.03
2023-07-19T21:18:26.481Z,5.40
2023-07-19T21:20:55.009Z,5.63
2023-07-19T21:23:23.331Z,5.45
2023-07-19T21:25:51.270Z,5.38
2023-07-19T21:28:21.301Z,6.47
2023-07-19T21:30:49.852Z,6.57
2023-07-19T21:33:18.378Z,6.05
2023-07-19T21:35:46.312Z,6.80
2023-07-19T21:38:14.960Z,7.40
2023-07-19T21:40:44.085Z,6.60
2023-07-19T21:43:12.089Z,5.68
2023-07-19T21:45:42.953Z,6.00
2023-07-19T21:48:11.040Z,6.05
2023-07-19T21:50:43.594Z,5.50
2023-07-19T21:53:13.067Z,5.78
2023-07-19T21:55:42.147Z,6.60
2023-07-19T21:58:11.133Z,6.30
2023-07-19T22:00:41.592Z,6.55
2023-07-19T22:03:13.189Z,6.47
2023-07-19T22:05:42.382Z,6.32
2023-07-19T22:08:10.625Z,6.82
2023-07-19T22:10:39.130Z,6.50
2023-07-19T22:13:08.505Z,7.03
2023-07-19T22:15:37.128Z,6.65
2023-07-19T22:18:18.272Z,6.70
2023-07-19T22:20:49.012Z,7.45
2023-07-19T22:23:17.364Z,7.30
2023-07-19T22:25:46.270Z,7.53
2023-07-19T22:28:15.792Z,6.57
2023-07-19T22:30:44.951Z,6.13
2023-07-19T22:33:15.443Z,3.97
2023-07-19T22:35:43.485Z,3.67
2023-07-19T22:38:11.501Z,2.97
2023-07-19T22:40:40.713Z,3.03
2023-07-19T22:43:08.721Z,2.90
2023-07-19T22:45:37.188Z,2.83
2023-07-19T22:48:08.461Z,2.88
2023-07-19T22:50:38.962Z,3.20
2023-07-19T22:53:07.022Z,3.33
2023-07-19T22:55:35.461Z,3.25
2023-07-19T22:58:04.343Z,3.78
2023-07-19T23:00:32.659Z,3.38
2023-07-19T23:03:01.296Z,3.60
2023-07-19T23:05:29.446Z,4.30
2023-07-19T23:07:59.374Z,4.85
2023-07-19T23:10:27.809Z,5.25
2023-07-19T23:12:55.771Z,5.45
2023-07-19T23:15:24.511Z,5.68
2023-07-19T23:17:53.820Z,5.57
2023-07-19T23:20:23.023Z,5.50
2023-07-19T23:22:51.161Z,5.13
2023-07-19T23:25:20.749Z,5.45
2023-07-19T23:27:49.607Z,5.50
2023-07-19T23:30:17.905Z,5.10
2023-07-19T23:32:46.419Z,5.20
2023-07-19T23:35:14.453Z,5.45
2023-07-19T23:37:42.938Z,4.50
2023-07-19T23:40:12.140Z,4.90
2023-07-19T23:42:41.492Z,4.13
2023-07-19T23:47:38.983Z,4.72
2023-07-19T23:50:08.662Z,4.60
2023-07-19T23:52:37.251Z,4.90
2023-07-19T23:55:06.300Z,4.93
2023-07-19T23:57:34.950Z,5.25
